Time;durP1;ratioP1;P1;durP2;ratioP2;P2;SDS_P1;SDS_P2;PMS_P1;PMS_P2;Temp;Humidity;BMP_temperature;BMP_pressure;BME280_temperature;BME280_humidity;BME280_pressure;Samples;Min_cycle;Max_cycle;Signal;HPM_P1;HPM_P2
2021/06/04 00:00:30;;;;;;;12.75;7.63;;;410.20;2227.20;;;;;;5056415;28;20031;-58
2021/06/04 00:03:03;;;;;;;12.32;8.50;;;410.20;2227.20;;;;;;5056193;28;20087;-58
2021/06/04 00:05:33;;;;;;;10.05;7.80;;;410.20;2252.80;;;;;;5055967;28;20025;-57
2021/06/04 00:08:00;;;;;;;10.18;7.70;;;410.20;2278.40;;;;;;5038230;28;20119;-58
2021/06/04 00:10:38;;;;;;;11.10;7.53;;;410.20;2304.00;;;;;;5056648;28;20033;-57
2021/06/04 00:13:33;;;;;;;13.23;7.82;;;410.20;2329.60;;;;;;5056853;28;20041;-58
2021/06/04 00:16:05;;;;;;;11.15;7.60;;;409.90;2355.20;;;;;;5055715;28;20041;-57
2021/06/04 00:18:35;;;;;;;12.63;8.13;;;409.90;2355.20;;;;;;5056201;28;20025;-57
2021/06/04 00:21:03;;;;;;;11.05;8.13;;;409.70;2355.20;;;;;;5056030;28;20087;-58
2021/06/04 00:23:29;;;;;;;11.18;7.68;;;409.60;2355.20;;;;;;5055737;28;20029;-57
2021/06/04 00:25:55;;;;;;;10.75;6.00;;;409.70;2355.20;;;;;;5056598;28;20497;-57
2021/06/04 00:28:21;;;;;;;11.30;7.65;;;409.70;2278.40;;;;;;5038940;28;20036;-58
2021/06/04 00:30:47;;;;;;;13.10;8.07;;;409.60;2278.40;;;;;;5056339;28;20037;-57
2021/06/04 00:33:12;;;;;;;13.32;7.75;;;384.90;2252.80;;;;;;5056434;28;20142;-57
2021/06/04 00:35:39;;;;;;;12.52;8.02;;;384.90;2252.80;;;;;;5056217;28;20106;-57
2021/06/04 00:38:07;;;;;;;11.15;8.68;;;384.90;2304.00;;;;;;5056506;28;20033;-57
2021/06/04 00:40:38;;;;;;;12.15;8.63;;;384.80;2304.00;;;;;;5038067;28;20029;-58
2021/06/04 00:43:06;;;;;;;10.98;8.40;;;384.80;2304.00;;;;;;5056373;28;20473;-57
2021/06/04 00:45:35;;;;;;;9.45;7.90;;;384.80;2304.00;;;;;;5055092;28;20478;-57
2021/06/04 00:48:01;;;;;;;10.27;7.63;;;384.80;2304.00;;;;;;5055522;28;20029;-57
2021/06/04 00:50:35;;;;;;;12.95;7.47;;;384.60;2329.60;;;;;;5055359;28;20036;-57
2021/06/04 00:53:02;;;;;;;11.07;7.10;;;384.60;2329.60;;;;;;5055358;28;20028;-57
2021/06/04 00:55:28;;;;;;;9.77;7.43;;;384.60;2329.60;;;;;;5055724;28;20033;-57
2021/06/04 00:57:55;;;;;;;10.60;7.25;;;384.60;2329.60;;;;;;5055953;28;20447;-57
2021/06/04 01:00:33;;;;;;;9.82;6.78;;;384.60;2329.60;;;;;;5055621;28;20112;-57
2021/06/04 01:02:59;;;;;;;14.10;7.15;;;384.60;2329.60;;;;;;5055236;28;20040;-57
2021/06/04 01:05:27;;;;;;;11.90;6.72;;;384.60;2329.60;;;;;;5055129;28;20176;-57
2021/06/04 01:08:11;;;;;;;9.50;7.15;;;384.60;2329.60;;;;;;5055178;28;20038;-57
2021/06/04 01:10:55;;;;;;;10.68;6.85;;;384.60;2329.60;;;;;;5055490;28;20116;-57
2021/06/04 01:13:51;;;;;;;11.32;6.88;;;384.50;2329.60;;;;;;5055922;28;20028;-57
2021/06/04 01:16:56;;;;;;;9.00;6.75;;;384.50;2329.60;;;;;;5044961;28;20037;-57
2021/06/04 01:19:34;;;;;;;10.27;7.10;;;384.50;2329.60;;;;;;5055378;28;20036;-57
2021/06/04 01:22:06;;;;;;;8.73;6.85;;;384.60;2329.60;;;;;;5055016;28;20033;-58
2021/06/04 01:25:02;;;;;;;10.80;6.53;;;384.50;2329.60;;;;;;5054729;28;20463;-57
2021/06/04 01:27:38;;;;;;;10.43;6.85;;;384.50;2329.60;;;;;;5054783;28;20378;-57
2021/06/04 01:30:06;;;;;;;8.27;6.75;;;384.50;2329.60;;;;;;5055364;28;20032;-57
2021/06/04 01:32:35;;;;;;;8.75;6.60;;;384.50;2329.60;;;;;;5055451;28;20033;-57
2021/06/04 01:35:16;;;;;;;9.18;6.50;;;384.50;2329.60;;;;;;5055055;28;20038;-57
2021/06/04 01:37:43;;;;;;;9.95;6.47;;;384.50;2329.60;;;;;;5055027;28;20063;-57
2021/06/04 01:40:23;;;;;;;8.25;6.28;;;384.50;2329.60;;;;;;5055201;28;20029;-57
2021/06/04 01:42:50;;;;;;;8.88;6.65;;;384.50;2329.60;;;;;;5055149;28;20078;-56
2021/06/04 01:45:24;;;;;;;8.52;6.57;;;384.40;2329.60;;;;;;5055267;28;20040;-57
2021/06/04 01:47:56;;;;;;;8.15;6.60;;;384.30;2329.60;;;;;;5055053;28;20473;-57
2021/06/04 01:50:29;;;;;;;9.02;6.35;;;384.20;2329.60;;;;;;5054699;28;20044;-57
2021/06/04 01:52:59;;;;;;;9.27;6.22;;;384.10;2329.60;;;;;;5055022;28;20071;-57
2021/06/04 01:55:29;;;;;;;7.88;6.25;;;384.00;2329.60;;;;;;5054884;28;20497;-57
2021/06/04 01:58:18;;;;;;;9.35;5.80;;;384.00;2329.60;;;;;;5053619;28;20468;-57
2021/06/04 02:00:48;;;;;;;9.95;6.68;;;359.30;2329.60;;;;;;5054828;28;20075;-57
2021/06/04 02:03:17;;;;;;;12.68;6.88;;;359.20;2329.60;;;;;;5054704;28;20100;-57
2021/06/04 02:05:44;;;;;;;13.40;6.40;;;359.20;2329.60;;;;;;5054879;28;20021;-57
2021/06/04 02:08:14;;;;;;;13.50;7.20;;;359.20;2329.60;;;;;;5054883;28;20025;-57
2021/06/04 02:10:46;;;;;;;9.70;6.53;;;359.30;2329.60;;;;;;5054837;28;20025;-57
2021/06/04 02:13:12;;;;;;;11.68;6.82;;;359.30;2304.00;;;;;;5054351;28;20112;-57
2021/06/04 02:15:43;;;;;;;10.50;7.20;;;359.20;2304.00;;;;;;5036056;28;20043;-57
2021/06/04 02:18:31;;;;;;;12.18;7.20;;;359.20;2304.00;;;;;;5054619;28;20048;-57
2021/06/04 02:21:16;;;;;;;14.15;7.95;;;359.20;2304.00;;;;;;5054417;28;20434;-57
2021/06/04 02:23:51;;;;;;;9.90;6.97;;;359.10;2304.00;;;;;;5054425;28;20025;-57
2021/06/04 02:26:35;;;;;;;14.57;7.18;;;359.20;2304.00;;;;;;5054263;28;20028;-57
2021/06/04 02:29:11;;;;;;;12.35;7.22;;;359.20;2304.00;;;;;;5054058;28;20021;-57
2021/06/04 02:31:43;;;;;;;11.38;6.88;;;384.00;2304.00;;;;;;5053483;28;20112;-57
2021/06/04 02:34:42;;;;;;;10.55;6.82;;;359.20;2304.00;;;;;;5053585;28;20029;-57
2021/06/04 02:37:28;;;;;;;10.57;6.57;;;359.20;2304.00;;;;;;5035404;28;20525;-57
2021/06/04 02:40:08;;;;;;;11.02;7.15;;;359.10;2304.00;;;;;;5053935;28;20067;-57
2021/06/04 02:42:51;;;;;;;11.23;7.40;;;359.10;2304.00;;;;;;5053957;28;20435;-57
2021/06/04 02:45:26;;;;;;;11.38;7.30;;;359.10;2304.00;;;;;;5054063;28;20021;-57
2021/06/04 02:47:57;;;;;;;9.90;7.15;;;359.00;2304.00;;;;;;5054233;28;20033;-57
2021/06/04 02:50:26;;;;;;;11.90;7.40;;;359.00;2304.00;;;;;;5053704;28;20108;-57
2021/06/04 02:52:53;;;;;;;12.00;7.30;;;359.00;2304.00;;;;;;5053728;28;20025;-57
2021/06/04 02:55:26;;;;;;;12.77;7.15;;;359.00;2304.00;;;;;;5053849;28;20498;-57
2021/06/04 02:57:52;;;;;;;11.93;7.88;;;359.00;2304.00;;;;;;5035919;28;20066;-57
2021/06/04 03:00:32;;;;;;;11.95;7.40;;;359.00;2304.00;;;;;;5053707;28;20440;-57
2021/06/04 03:02:58;;;;;;;14.05;8.15;;;359.00;2304.00;;;;;;5053232;28;20047;-57
2021/06/04 03:05:32;;;;;;;11.60;8.00;;;359.00;2304.00;;;;;;5053052;28;20467;-57
2021/06/04 03:07:59;;;;;;;11.35;7.70;;;359.00;2304.00;;;;;;5052741;28;20080;-57
2021/06/04 03:10:28;;;;;;;11.63;7.82;;;359.00;2304.00;;;;;;5052804;28;20368;-57
2021/06/04 03:12:53;;;;;;;10.70;7.88;;;359.10;2304.00;;;;;;5053682;28;20025;-57
2021/06/04 03:15:41;;;;;;;10.45;7.38;;;359.10;2329.60;;;;;;5053634;28;20021;-57
2021/06/04 03:18:10;;;;;;;11.02;8.40;;;359.10;2329.60;;;;;;5035319;28;20112;-57
2021/06/04 03:20:40;;;;;;;10.23;7.00;;;358.90;2329.60;;;;;;5053454;28;20017;-57
2021/06/04 03:23:09;;;;;;;10.40;7.18;;;359.00;2329.60;;;;;;5052890;28;20565;-57
2021/06/04 03:25:39;;;;;;;12.95;7.20;;;359.10;2329.60;;;;;;5053628;28;20489;-57
2021/06/04 03:28:07;;;;;;;10.52;7.70;;;359.20;2329.60;;;;;;5053571;28;20024;-57
2021/06/04 03:30:36;;;;;;;12.50;7.78;;;359.20;2329.60;;;;;;5035497;28;20544;-57
2021/06/04 03:33:03;;;;;;;10.82;7.30;;;359.20;2329.60;;;;;;5052973;28;20067;-57
2021/06/04 03:35:30;;;;;;;14.25;7.30;;;359.20;2329.60;;;;;;5052454;28;20514;-57
2021/06/04 03:37:56;;;;;;;9.90;7.60;;;359.30;2329.60;;;;;;5052842;28;20037;-58
2021/06/04 03:40:27;;;;;;;10.90;7.00;;;359.30;2329.60;;;;;;5052592;28;20541;-57
2021/06/04 03:42:54;;;;;;;14.10;6.90;;;384.00;2329.60;;;;;;5053202;28;20025;-57
2021/06/04 03:45:26;;;;;;;11.23;6.32;;;384.00;2329.60;;;;;;5053359;28;20029;-57
2021/06/04 03:47:52;;;;;;;11.27;6.60;;;384.10;2329.60;;;;;;5053210;28;20025;-57
2021/06/04 03:50:18;;;;;;;12.20;6.72;;;384.20;2329.60;;;;;;5052941;28;20036;-57
2021/06/04 03:52:44;;;;;;;12.07;6.82;;;384.20;2278.40;;;;;;5053015;28;20033;-57
2021/06/04 03:55:11;;;;;;;15.02;6.57;;;384.30;2278.40;;;;;;5053083;28;20037;-57
2021/06/04 03:57:37;;;;;;;11.68;6.55;;;384.30;2252.80;;;;;;5053153;28;20115;-57
2021/06/04 04:00:15;;;;;;;11.15;6.40;;;384.30;2227.20;;;;;;5052468;28;20032;-57
2021/06/04 04:02:41;;;;;;;11.00;6.47;;;384.30;2252.80;;;;;;5052190;28;20470;-57
2021/06/04 04:05:08;;;;;;;12.82;7.32;;;384.30;2252.80;;;;;;5034595;28;20056;-57
2021/06/04 04:07:33;;;;;;;10.95;7.88;;;384.30;2278.40;;;;;;5052364;28;20108;-57
2021/06/04 04:09:59;;;;;;;15.32;8.43;;;384.30;2278.40;;;;;;5052780;28;20045;-57
2021/06/04 04:12:26;;;;;;;14.20;8.52;;;384.40;2278.40;;;;;;5052866;28;20149;-57
2021/06/04 04:14:52;;;;;;;15.05;8.32;;;384.30;2278.40;;;;;;5053137;28;20467;-57
2021/06/04 04:17:19;;;;;;;14.35;8.18;;;384.40;2278.40;;;;;;5052655;28;20182;-57
2021/06/04 04:19:45;;;;;;;13.38;8.20;;;384.40;2278.40;;;;;;5052738;28;20032;-58
2021/06/04 04:22:11;;;;;;;12.15;8.00;;;384.50;2278.40;;;;;;5038100;28;20029;-57
2021/06/04 04:24:39;;;;;;;14.27;7.68;;;384.50;2278.40;;;;;;5056111;28;20100;-57
2021/06/04 04:27:07;;;;;;;10.57;7.90;;;384.60;2278.40;;;;;;5055868;28;20036;-57
2021/06/04 04:29:33;;;;;;;9.48;7.10;;;384.60;2252.80;;;;;;5055858;28;20104;-57
2021/06/04 04:32:02;;;;;;;14.52;7.90;;;384.80;2252.80;;;;;;5037430;28;20052;-57
2021/06/04 04:34:29;;;;;;;13.23;8.70;;;384.90;2252.80;;;;;;5056234;28;20024;-57
2021/06/04 04:36:59;;;;;;;18.10;11.02;;;409.60;2278.40;;;;;;5055883;28;20053;-57
2021/06/04 04:39:29;;;;;;;18.55;11.43;;;409.60;2252.80;;;;;;5056404;28;20370;-57
2021/06/04 04:41:55;;;;;;;11.25;7.95;;;409.80;2252.80;;;;;;5056066;28;20036;-58
2021/06/04 04:44:26;;;;;;;11.57;7.55;;;409.90;2304.00;;;;;;5056201;28;20017;-57
2021/06/04 04:46:52;;;;;;;12.50;7.75;;;410.00;2278.40;;;;;;5056092;28;20075;-57
2021/06/04 04:49:18;;;;;;;10.95;7.28;;;410.10;2278.40;;;;;;5056319;28;20086;-57
2021/06/04 04:51:43;;;;;;;12.63;7.45;;;410.20;2252.80;;;;;;5056201;28;20448;-57
2021/06/04 04:54:10;;;;;;;10.63;7.53;;;410.30;2278.40;;;;;;5038172;28;20021;-57
2021/06/04 04:56:37;;;;;;;14.35;7.63;;;410.40;2278.40;;;;;;5056120;28;20094;-56
2021/06/04 04:59:04;;;;;;;15.65;7.93;;;410.40;2278.40;;;;;;5056245;28;20055;-56
2021/06/04 05:01:30;;;;;;;10.60;7.90;;;410.50;2278.40;;;;;;5055354;28;20025;-57
2021/06/04 05:03:56;;;;;;;14.50;7.78;;;410.50;2278.40;;;;;;5055806;28;20051;-57
2021/06/04 05:06:22;;;;;;;13.95;8.15;;;435.20;2304.00;;;;;;5055937;28;20036;-57
2021/06/04 05:08:48;;;;;;;17.35;8.65;;;435.30;2304.00;;;;;;5055665;28;20033;-56
2021/06/04 05:11:14;;;;;;;16.85;7.70;;;435.30;2304.00;;;;;;5055888;28;20120;-57
2021/06/04 05:13:40;;;;;;;10.57;7.55;;;435.50;2304.00;;;;;;5055857;28;20044;-57
2021/06/04 05:16:06;;;;;;;12.68;7.57;;;435.60;2304.00;;;;;;5055739;28;20021;-57
2021/06/04 05:18:34;;;;;;;12.60;7.15;;;435.70;2304.00;;;;;;5055573;28;20021;-57
2021/06/04 05:21:02;;;;;;;11.15;6.93;;;435.80;2252.80;;;;;;5055609;28;20029;-57
2021/06/04 05:23:28;;;;;;;11.48;6.60;;;436.00;2201.60;;;;;;5055618;28;20039;-57
2021/06/04 05:25:55;;;;;;;11.32;6.50;;;436.10;2227.20;;;;;;5055627;28;20025;-57
2021/06/04 05:28:25;;;;;;;10.88;6.70;;;460.80;2227.20;;;;;;5055587;28;20025;-57
2021/06/04 05:30:54;;;;;;;9.23;6.20;;;461.00;2252.80;;;;;;5054977;28;20029;-57
2021/06/04 05:33:25;;;;;;;10.18;6.40;;;461.10;2227.20;;;;;;5055568;28;20024;-57
2021/06/04 05:35:51;;;;;;;10.02;6.28;;;461.20;2201.60;;;;;;5055120;28;20499;-57
2021/06/04 05:38:17;;;;;;;10.20;6.80;;;461.30;2176.00;;;;;;5055535;28;20029;-57
2021/06/04 05:40:47;;;;;;;9.65;6.15;;;461.40;2201.60;;;;;;5055387;28;20028;-57
2021/06/04 05:43:16;;;;;;;9.43;5.90;;;461.50;2201.60;;;;;;5055176;28;20033;-57
2021/06/04 05:45:44;;;;;;;10.50;6.25;;;461.60;2150.40;;;;;;5054965;28;20467;-57
2021/06/04 05:48:12;;;;;;;7.97;5.65;;;461.70;2150.40;;;;;;5054988;28;20550;-57
2021/06/04 05:50:41;;;;;;;9.20;6.03;;;461.70;2150.40;;;;;;5054891;28;20120;-57
2021/06/04 05:53:10;;;;;;;9.20;5.88;;;486.40;2124.80;;;;;;5054831;28;20051;-57
2021/06/04 05:55:38;;;;;;;8.50;5.85;;;486.40;2099.20;;;;;;5054907;28;20025;-57
2021/06/04 05:58:06;;;;;;;8.40;5.70;;;486.50;2099.20;;;;;;5054596;28;20067;-57
2021/06/04 06:00:36;;;;;;;9.48;5.80;;;486.60;2099.20;;;;;;5036431;28;20128;-57
2021/06/04 06:03:04;;;;;;;9.93;5.68;;;486.70;2073.60;;;;;;5054864;28;20032;-57
2021/06/04 06:05:31;;;;;;;10.40;6.13;;;486.90;2048.00;;;;;;5054719;28;20032;-57
2021/06/04 06:07:57;;;;;;;9.98;5.15;;;487.00;1996.80;;;;;;5054445;28;20029;-57
2021/06/04 06:10:23;;;;;;;8.68;5.45;;;487.10;1945.60;;;;;;5054518;28;20025;-57
2021/06/04 06:12:53;;;;;;;9.50;5.93;;;487.20;1945.60;;;;;;5054715;28;20059;-57
2021/06/04 06:15:21;;;;;;;10.32;6.07;;;487.30;1894.40;;;;;;5054375;28;20351;-57
2021/06/04 06:17:47;;;;;;;10.80;5.43;;;512.10;1920.00;;;;;;5054010;28;20028;-57
2021/06/04 06:20:15;;;;;;;9.45;6.07;;;512.20;1894.40;;;;;;5054566;28;20071;-57
2021/06/04 06:22:42;;;;;;;8.38;5.97;;;512.30;1817.60;;;;;;5036574;28;20060;-57
2021/06/04 06:25:10;;;;;;;8.85;5.70;;;512.50;1817.60;;;;;;5054547;28;20104;-57
2021/06/04 06:27:36;;;;;;;7.85;5.55;;;512.70;1740.80;;;;;;5036590;28;20032;-57
2021/06/04 06:30:04;;;;;;;10.48;5.43;;;512.70;1740.80;;;;;;5054074;28;20025;-58
2021/06/04 06:32:30;;;;;;;8.55;5.38;;;512.80;1715.20;;;;;;5054123;28;20495;-57
2021/06/04 06:34:57;;;;;;;9.48;5.00;;;512.90;1638.40;;;;;;5054204;28;20031;-58
2021/06/04 06:37:23;;;;;;;9.55;5.30;;;537.70;1638.40;;;;;;5054120;28;20033;-57
2021/06/04 06:39:48;;;;;;;8.65;4.75;;;537.80;1638.40;;;;;;5053760;28;20379;-58
2021/06/04 06:42:14;;;;;;;9.20;4.68;;;537.90;1587.20;;;;;;5053515;28;20447;-59
2021/06/04 06:44:40;;;;;;;10.52;4.70;;;538.10;1638.40;;;;;;5035897;28;20032;-57
2021/06/04 06:47:06;;;;;;;8.50;4.53;;;538.20;1664.00;;;;;;5053885;28;20433;-57
2021/06/04 06:49:32;;;;;;;8.27;4.30;;;538.40;1612.80;;;;;;5053838;28;20033;-58
2021/06/04 06:51:57;;;;;;;7.32;4.22;;;538.40;1612.80;;;;;;5053893;28;20164;-57
2021/06/04 06:54:27;;;;;;;9.35;4.20;;;563.20;1561.60;;;;;;5053978;28;20475;-57
2021/06/04 06:56:55;;;;;;;7.18;4.30;;;563.30;1587.20;;;;;;5053893;28;20407;-57
2021/06/04 06:59:24;;;;;;;7.30;3.65;;;563.50;1433.60;;;;;;5053789;28;20052;-58
2021/06/04 07:01:50;;;;;;;6.80;3.55;;;563.50;1484.80;;;;;;5053712;28;20462;-57
2021/06/04 07:04:16;;;;;;;7.10;3.70;;;563.60;1459.20;;;;;;5053763;28;20112;-57
2021/06/04 07:06:43;;;;;;;4.88;3.30;;;563.80;1433.60;;;;;;5053577;28;20375;-58
2021/06/04 07:09:13;;;;;;;4.53;2.70;;;563.90;1433.60;;;;;;5053466;28;20021;-58
2021/06/04 07:11:43;;;;;;;5.90;2.70;;;564.00;1331.20;;;;;;5053548;28;20048;-58
2021/06/04 07:14:10;;;;;;;10.10;2.90;;;564.10;1356.80;;;;;;5053450;28;20033;-58
2021/06/04 07:16:37;;;;;;;4.20;2.50;;;588.80;1331.20;;;;;;5053769;28;20029;-58
2021/06/04 07:19:05;;;;;;;4.95;3.03;;;588.90;1254.40;;;;;;5053495;28;20013;-58
2021/06/04 07:21:31;;;;;;;6.65;2.70;;;589.00;1331.20;;;;;;5053490;28;20032;-58
2021/06/04 07:23:57;;;;;;;3.85;2.40;;;589.10;1280.00;;;;;;5053560;28;20386;-58
2021/06/04 07:26:24;;;;;;;5.10;2.22;;;589.20;1254.40;;;;;;5053161;28;20121;-58
2021/06/04 07:28:50;;;;;;;4.10;2.42;;;589.30;1254.40;;;;;;5053579;28;20025;-58
2021/06/04 07:31:17;;;;;;;5.65;2.58;;;589.40;1177.60;;;;;;5053423;28;20036;-58
2021/06/04 07:33:47;;;;;;;6.28;2.80;;;589.50;1305.60;;;;;;5053490;28;20059;-57
2021/06/04 07:36:21;;;;;;;4.72;2.72;;;589.40;1305.60;;;;;;5052991;28;20048;-57
2021/06/04 07:38:48;;;;;;;5.50;2.70;;;589.50;1280.00;;;;;;5053092;28;20091;-57
2021/06/04 07:41:15;;;;;;;5.57;2.80;;;589.60;1280.00;;;;;;5053162;28;20067;-57
2021/06/04 07:43:44;;;;;;;5.60;2.88;;;589.50;1228.80;;;;;;5053200;28;20021;-58
2021/06/04 07:46:12;;;;;;;4.35;2.45;;;589.60;1228.80;;;;;;5053143;28;20021;-58
2021/06/04 07:48:38;;;;;;;5.63;2.97;;;589.70;1177.60;;;;;;5053411;28;20036;-58
2021/06/04 07:51:07;;;;;;;4.65;2.30;;;614.40;1152.00;;;;;;5052945;28;20037;-58
2021/06/04 07:53:34;;;;;;;7.03;2.60;;;614.50;1100.80;;;;;;5053075;28;20021;-58
2021/06/04 07:56:01;;;;;;;5.65;2.38;;;614.60;1152.00;;;;;;5055660;28;20528;-58
2021/06/04 07:58:27;;;;;;;5.80;2.50;;;614.70;1100.80;;;;;;5057407;28;20465;-57
2021/06/04 08:00:54;;;;;;;5.45;2.20;;;614.70;1049.60;;;;;;5039896;28;20075;-57
2021/06/04 08:03:22;;;;;;;4.68;2.50;;;614.70;1024.00;;;;;;5039365;28;20028;-57
2021/06/04 08:05:49;;;;;;;3.17;2.10;;;614.70;998.40;;;;;;5057341;28;20049;-57
2021/06/04 08:08:15;;;;;;;3.25;2.30;;;614.80;998.40;;;;;;5044498;28;20036;-58
2021/06/04 08:10:41;;;;;;;4.80;2.20;;;614.90;1024.00;;;;;;5036465;28;20032;-57
2021/06/04 08:13:13;;;;;;;4.32;2.30;;;615.00;972.80;;;;;;5036667;28;20116;-57
2021/06/04 08:15:52;;;;;;;3.10;2.05;;;615.20;947.20;;;;;;5036584;28;20049;-58
2021/06/04 08:18:21;;;;;;;4.95;2.25;;;615.30;1024.00;;;;;;5036738;28;20470;-58
2021/06/04 08:20:47;;;;;;;5.45;2.10;;;640.00;972.80;;;;;;5035566;28;20075;-58
2021/06/04 08:23:25;;;;;;;2.75;2.17;;;640.20;998.40;;;;;;5036283;28;20025;-58
2021/06/04 08:25:54;;;;;;;2.67;2.10;;;640.30;947.20;;;;;;5036518;28;20032;-59
2021/06/04 08:28:21;;;;;;;5.15;2.30;;;640.40;921.60;;;;;;5036512;28;20040;-59
2021/06/04 08:30:48;;;;;;;4.63;2.30;;;640.40;947.20;;;;;;5036171;28;20033;-59
2021/06/04 08:33:23;;;;;;;3.63;2.28;;;640.30;947.20;;;;;;5036314;28;20033;-58
2021/06/04 08:35:49;;;;;;;2.97;2.17;;;640.50;972.80;;;;;;5035906;28;20487;-59
2021/06/04 08:38:15;;;;;;;7.22;2.10;;;640.60;947.20;;;;;;5036388;28;20040;-59
2021/06/04 08:40:41;;;;;;;4.05;2.08;;;640.60;947.20;;;;;;5036007;28;20618;-59
2021/06/04 08:43:48;;;;;;;4.53;2.10;;;640.80;921.60;;;;;;5036035;28;20108;-59
2021/06/04 08:46:33;;;;;;;3.47;2.20;;;665.60;998.40;;;;;;5034110;28;20052;-61
2021/06/04 08:49:08;;;;;;;3.95;2.40;;;665.60;947.20;;;;;;5033386;28;20525;-59
2021/06/04 08:51:40;;;;;;;5.35;2.40;;;665.60;947.20;;;;;;5034831;28;20033;-60
2021/06/04 08:54:16;;;;;;;3.30;2.20;;;640.90;921.60;;;;;;5017443;28;20080;-59
2021/06/04 08:56:56;;;;;;;3.78;2.38;;;665.70;972.80;;;;;;5035405;28;20032;-60
2021/06/04 08:59:24;;;;;;;4.00;2.10;;;665.80;896.00;;;;;;5017093;28;20384;-61
2021/06/04 09:01:54;;;;;;;5.85;2.33;;;665.80;921.60;;;;;;5035333;28;20068;-59
2021/06/04 09:04:31;;;;;;;3.67;2.60;;;665.80;921.60;;;;;;5043651;28;20021;-59
2021/06/04 09:07:14;;;;;;;3.08;1.83;;;666.00;947.20;;;;;;5033678;28;20029;-61
2021/06/04 09:09:47;;;;;;;4.72;2.20;;;666.40;947.20;;;;;;5052476;28;20048;-61
2021/06/04 09:12:25;;;;;;;4.18;2.30;;;666.40;921.60;;;;;;5054248;28;20132;-58
2021/06/04 09:14:53;;;;;;;3.22;2.00;;;666.40;819.20;;;;;;5054550;28;20106;-59
2021/06/04 09:17:19;;;;;;;3.70;2.00;;;691.20;844.80;;;;;;5049495;28;20040;-59
2021/06/04 09:20:15;;;;;;;5.53;2.10;;;691.20;844.80;;;;;;5036313;28;20112;-59
2021/06/04 09:22:47;;;;;;;2.95;1.95;;;666.50;793.60;;;;;;4943573;29;20152;-59
2021/06/04 09:25:17;;;;;;;3.13;2.00;;;666.50;793.60;;;;;;4954754;28;20562;-59
2021/06/04 09:27:47;;;;;;;3.35;2.05;;;666.50;793.60;;;;;;4954636;28;20039;-59
2021/06/04 09:30:21;;;;;;;3.45;2.03;;;691.30;819.20;;;;;;4954765;29;20054;-59
2021/06/04 09:33:06;;;;;;;4.90;2.00;;;691.50;793.60;;;;;;4954622;28;20045;-59
2021/06/04 09:35:33;;;;;;;4.65;2.10;;;691.60;793.60;;;;;;4954135;29;20062;-59
2021/06/04 09:38:31;;;;;;;7.25;2.10;;;691.90;768.00;;;;;;4938648;29;20401;-59
2021/06/04 09:41:10;;;;;;;3.78;2.05;;;716.80;819.20;;;;;;4953726;29;20046;-60
2021/06/04 09:43:36;;;;;;;5.15;2.22;;;717.00;819.20;;;;;;4938170;29;20039;-59
2021/06/04 09:46:06;;;;;;;3.40;2.20;;;717.20;793.60;;;;;;4964378;28;20035;-59
2021/06/04 09:48:52;;;;;;;4.82;2.50;;;717.30;793.60;;;;;;4957366;28;20596;-58
2021/06/04 09:51:23;;;;;;;3.72;2.00;;;717.40;793.60;;;;;;4973420;28;20051;-59
2021/06/04 09:53:49;;;;;;;3.90;2.33;;;717.40;742.40;;;;;;4973611;28;20037;-58
2021/06/04 09:56:28;;;;;;;3.10;2.03;;;717.30;793.60;;;;;;4973162;28;20151;-58
2021/06/04 11:48:54;;;;;;;5.20;1.95;;;768.90;716.80;;;;;;5083792;28;20102;-57
2021/06/04 11:51:20;;;;;;;2.42;2.00;;;768.90;640.00;;;;;;5071199;28;20044;-60
2021/06/04 11:53:53;;;;;;;3.50;2.00;;;793.60;716.80;;;;;;5072886;28;20534;-58
2021/06/04 11:56:37;;;;;;;4.00;1.83;;;793.60;665.60;;;;;;5073200;28;20094;-58
2021/06/04 11:59:09;;;;;;;3.20;1.90;;;768.90;640.00;;;;;;5073167;28;20412;-57
2021/06/04 12:01:59;;;;;;;5.88;2.08;;;793.60;640.00;;;;;;5072835;28;20045;-58
2021/06/04 12:04:24;;;;;;;3.75;2.05;;;793.60;665.60;;;;;;5073036;28;20029;-58
2021/06/04 12:06:55;;;;;;;3.45;2.00;;;768.80;614.40;;;;;;5071492;28;20040;-57
2021/06/04 12:09:33;;;;;;;3.28;2.00;;;768.80;640.00;;;;;;5073068;28;20040;-57
2021/06/04 12:12:24;;;;;;;3.65;2.00;;;768.90;614.40;;;;;;5073077;28;20032;-57
2021/06/04 12:14:56;;;;;;;4.28;1.80;;;768.60;588.80;;;;;;5031155;28;20038;-57
2021/06/04 12:17:38;;;;;;;3.80;1.98;;;768.50;614.40;;;;;;5030896;28;20037;-58
2021/06/04 12:20:26;;;;;;;3.05;2.00;;;768.70;691.20;;;;;;5030018;28;20413;-57
2021/06/04 12:22:58;;;;;;;3.00;2.00;;;793.60;691.20;;;;;;5023976;28;20060;-58
2021/06/04 12:25:47;;;;;;;3.88;1.98;;;793.70;665.60;;;;;;5010501;28;20085;-58
2021/06/04 12:28:22;;;;;;;4.13;2.00;;;793.80;640.00;;;;;;5010466;28;20026;-58
2021/06/04 12:30:59;;;;;;;3.55;2.10;;;768.80;588.80;;;;;;5011082;28;20041;-58
2021/06/04 12:33:39;;;;;;;3.67;2.00;;;768.90;614.40;;;;;;4994038;28;20041;-57
2021/06/04 12:36:29;;;;;;;7.50;2.10;;;793.60;640.00;;;;;;5010675;28;20022;-58
2021/06/04 12:39:33;;;;;;;3.95;2.00;;;793.60;665.60;;;;;;5010641;28;20498;-58
2021/06/04 12:42:07;;;;;;;3.50;1.85;;;768.90;588.80;;;;;;5026215;28;20041;-60
2021/06/04 12:44:33;;;;;;;4.88;2.03;;;768.90;614.40;;;;;;5033525;28;20084;-59
2021/06/04 12:46:59;;;;;;;3.42;1.90;;;768.50;614.40;;;;;;5016767;28;20038;-60
2021/06/04 12:49:25;;;;;;;3.17;1.88;;;768.20;665.60;;;;;;5033280;28;20033;-59
2021/06/04 12:51:51;;;;;;;3.78;2.00;;;768.50;640.00;;;;;;5055081;28;20036;-60
2021/06/04 12:54:31;;;;;;;4.38;1.90;;;768.50;588.80;;;;;;5069721;28;20036;-59
2021/06/04 12:56:59;;;;;;;3.72;1.98;;;768.30;640.00;;;;;;5073282;28;20505;-58
2021/06/04 12:59:30;;;;;;;5.65;2.35;;;768.10;665.60;;;;;;5075901;28;20025;-59
2021/06/04 13:01:56;;;;;;;5.25;2.13;;;768.30;716.80;;;;;;5068519;28;20232;-59
2021/06/04 13:04:43;;;;;;;4.53;2.05;;;768.60;665.60;;;;;;5067853;28;20056;-59
2021/06/04 13:07:25;;;;;;;3.08;2.00;;;768.80;640.00;;;;;;5072667;28;20376;-59
2021/06/04 13:10:12;;;;;;;3.88;1.90;;;768.90;614.40;;;;;;5059301;28;20056;-59
2021/06/04 13:12:40;;;;;;;3.00;1.92;;;793.60;640.00;;;;;;5064855;28;20029;-58
2021/06/04 13:15:21;;;;;;;3.08;1.90;;;793.60;614.40;;;;;;5055659;28;20064;-58
2021/06/04 13:18:02;;;;;;;3.55;2.00;;;793.60;665.60;;;;;;5055604;28;20040;-59
2021/06/04 13:20:34;;;;;;;5.55;2.20;;;768.70;588.80;;;;;;5070606;28;20113;-59
2021/06/04 13:23:20;;;;;;;5.47;1.90;;;768.50;588.80;;;;;;5065323;28;20039;-59
2021/06/04 13:26:01;;;;;;;3.13;1.90;;;768.80;640.00;;;;;;5055582;28;20171;-58
2021/06/04 13:28:47;;;;;;;4.72;2.03;;;768.80;640.00;;;;;;5050362;28;20021;-59
2021/06/04 13:31:21;;;;;;;3.88;1.80;;;793.60;640.00;;;;;;5073716;28;20036;-58
2021/06/04 13:33:52;;;;;;;3.63;2.22;;;793.70;614.40;;;;;;5074876;28;20093;-59
2021/06/04 13:36:20;;;;;;;4.40;1.80;;;793.80;640.00;;;;;;5074885;28;20035;-61
2021/06/04 13:39:08;;;;;;;3.13;1.92;;;794.00;665.60;;;;;;5063451;28;20021;-58
2021/06/04 13:41:44;;;;;;;5.47;1.95;;;794.10;665.60;;;;;;5069454;28;20021;-58
2021/06/04 13:44:13;;;;;;;3.60;1.95;;;794.30;614.40;;;;;;5073237;28;20109;-58
2021/06/04 13:46:47;;;;;;;3.42;1.90;;;794.40;563.20;;;;;;5073240;28;20063;-60
2021/06/04 13:49:13;;;;;;;4.18;1.90;;;819.60;614.40;;;;;;5070553;28;20035;-57
2021/06/04 13:51:40;;;;;;;3.60;1.83;;;870.50;512.00;;;;;;5066759;28;20412;-57
2021/06/04 13:54:25;;;;;;;3.50;2.03;;;871.20;435.20;;;;;;5067907;28;20025;-57
2021/06/04 13:56:51;;;;;;;5.95;1.88;;;972.80;384.00;;;;;;5050940;28;20132;-57
2021/06/04 13:59:17;;;;;;;2.78;2.05;;;999.00;332.80;;;;;;5071754;28;20044;-56
2021/06/04 14:01:56;;;;;;;3.42;1.90;;;1075.30;358.40;;;;;;5073144;28;20198;-57
2021/06/04 14:04:38;;;;;;;2.63;1.95;;;1100.80;384.00;;;;;;5075155;28;20028;-58
2021/06/04 14:07:24;;;;;;;3.22;1.80;;;1024.20;332.80;;;;;;5057342;28;20487;-59
2021/06/04 14:09:54;;;;;;;2.47;1.90;;;948.00;332.80;;;;;;5067248;28;20032;-56
2021/06/04 14:12:20;;;;;;;4.72;2.00;;;921.90;384.00;;;;;;5071033;28;20028;-57
2021/06/04 14:14:55;;;;;;;2.25;1.90;;;871.20;435.20;;;;;;5069179;28;20048;-56
2021/06/04 14:17:36;;;;;;;5.20;1.80;;;870.40;460.80;;;;;;5071354;28;20111;-57
2021/06/04 14:20:13;;;;;;;4.93;1.80;;;845.50;512.00;;;;;;5067071;28;20017;-58
2021/06/04 14:22:50;;;;;;;3.10;1.95;;;845.20;537.60;;;;;;5070769;28;20024;-59
2021/06/04 14:25:20;;;;;;;4.22;2.05;;;820.10;537.60;;;;;;5051291;28;20458;-58
2021/06/04 14:27:55;;;;;;;2.50;1.90;;;819.50;588.80;;;;;;5070287;28;20028;-58
2021/06/04 14:30:34;;;;;;;;;;;819.50;588.80;;;;;;5048447;28;20020;-58